METAR AND TAF INFORMATION
METAR FOR LOWI
ADDS - METARS form results

(1804 UTC 23 January 2021)
Data provider http://aviationweather.gov/metar/data/
 
METAR text: LOWI 231750Z 08005KT 9999 FEW040 SCT100 02/M02 Q0996 NOSIG
Conditions at: LOWI (INNSBRUCK AIRPOR, AT) observed 1750 UTC 23 January 2021
Temperature: 2.0°C (36°F)
Dewpoint: -2.0°C (28°F) [RH = 75%]
Pressure (altimeter): 29.41 inches Hg (996.0 mb)
Winds: from the E (80 degrees) at 6 MPH (5 knots; 2.6 m/s)
Visibility: 6 or more miles (10+ km)
Ceiling: at least 12,000 feet AGL
Clouds: few clouds at 4000 feet AGL
scattered clouds at 10000 feet AGL
Weather: no significant weather observed at this time

METAR text: LOWI 231720Z 07003KT 020V110 9999 FEW040 SCT100 02/M02 Q0996 NOSIG
Conditions at: LOWI (INNSBRUCK AIRPOR, AT) observed 1720 UTC 23 January 2021
Temperature: 2.0°C (36°F)
Dewpoint: -2.0°C (28°F) [RH = 75%]
Pressure (altimeter): 29.41 inches Hg (996.0 mb)
Winds: from the ENE (70 degrees) at 3 MPH (3 knots; 1.5 m/s)
Visibility: 6 or more miles (10+ km)
Ceiling: at least 12,000 feet AGL
Clouds: few clouds at 4000 feet AGL
scattered clouds at 10000 feet AGL
Weather: no significant weather observed at this time

Forecast for: LOWI (INNSBRUCK AIRPOR, AT)
Text: TAF LOWI 231715Z 2318/2418 VRB02KT 9999 FEW050 BKN100 TX03/2414Z TNM02/2405Z
Forecast period: 1800 UTC 23 January 2021 to 1800 UTC 24 January 2021
Forecast type: FROM: standard forecast or significant change
Winds: variable direction winds at 2 MPH (2 knots; 1.0 m/s)
Visibility: 6 or more miles (10+ km)
Ceiling: 10000 feet AGL
Clouds: few clouds at 5000 feet AGL
broken clouds at 10000 feet AGL
Weather: no significant weather forecast for this period
Text: TEMPO 2318/2408 27007KT -SHRASN SCT050 BKN070
Forecast period: 1800 UTC 23 January 2021 to 0800 UTC 24 January 2021
Forecast type: TEMPORARY: The following changes expected for less than half the time period
Winds: from the W (270 degrees) at 8 MPH (7 knots; 3.6 m/s)
Visibility: missing
Ceiling: 7000 feet AGL
Clouds: scattered clouds at 5000 feet AGL
broken clouds at 7000 feet AGL
Weather: -SHRA -SHSN  (light rain showers, light snow showers)

 AIRPORT MAP

 RUNWAY INFORMATION
Runway 08 Runway length 6562 ft Runway width 148 ft
Runway elevation 1906 ft Runway displaced threshold 339 ft Runway heading 81
Runway 26 Runway length 6562 ft Runway width 148 ft
Runway elevation 1893 ft Runway displaced threshold 198 ft Runway heading 261

 AIRPORT FREQUENCIES
Type APP Name APP Frequency 119.275 MHZ
Type ATIS Name ATIS Frequency 126.025 MHZ
Type GND Crew Name Frequency 121.8 MHZ
Type GND Crew Name Frequency 121.9 MHZ
Type TWR Name TWR Frequency 120.1 MHZ

 AIRPORT NEAR NAVIGATION AIDS
Type NDB Name Innsbruck Frequency 420 KHZ
Type NDB Name Kuhtai Frequency 413 KHZ



Powered by Virtual Airlines Manager [v2.6.2]

Impressum | Datenschutz